createdAt,value
2022-08-29T00:00:18.108Z,96928.25
2022-08-29T00:02:47.379Z,96933.06
2022-08-29T00:05:16.617Z,96931.03
2022-08-29T00:07:44.235Z,96928.97
2022-08-29T00:10:12.172Z,96933.22
2022-08-29T00:12:39.783Z,96934.03
2022-08-29T00:15:10.107Z,96934.09
2022-08-29T00:17:37.702Z,96929.13
2022-08-29T00:20:06.716Z,96933.66
2022-08-29T00:22:35.698Z,96930.84
2022-08-29T00:25:04.921Z,96929.81
2022-08-29T00:27:33.079Z,96928.38
2022-08-29T00:30:00.797Z,96928.38
2022-08-29T00:32:34.985Z,96926.75
2022-08-29T00:35:02.780Z,96930.00
2022-08-29T00:37:30.394Z,96928.00
2022-08-29T00:39:59.434Z,96925.84
2022-08-29T00:42:27.836Z,96928.78
2022-08-29T00:44:55.391Z,96926.44
2022-08-29T00:47:30.175Z,96938.63
2022-08-29T00:49:58.245Z,96937.69
2022-08-29T00:52:32.139Z,96935.47
2022-08-29T00:55:03.341Z,96939.94
2022-08-29T00:57:33.504Z,96937.50
2022-08-29T01:00:01.657Z,96938.97
2022-08-29T01:02:29.445Z,96932.53
2022-08-29T01:04:57.867Z,96936.63
2022-08-29T01:07:25.430Z,96933.41
2022-08-29T01:09:54.034Z,96937.88
2022-08-29T01:12:23.296Z,96942.53
2022-08-29T01:14:53.508Z,96943.75
2022-08-29T01:17:24.204Z,96943.16
2022-08-29T01:19:57.153Z,96934.31
2022-08-29T01:22:44.405Z,96939.19
2022-08-29T01:25:17.139Z,96948.53
2022-08-29T01:27:48.969Z,96947.13
2022-08-29T01:30:16.580Z,96937.63
2022-08-29T01:32:44.220Z,96932.78
2022-08-29T01:35:12.167Z,96940.91
2022-08-29T01:37:43.022Z,96938.44
2022-08-29T01:40:11.615Z,96934.94
2022-08-29T01:42:40.900Z,96935.94
2022-08-29T01:45:10.251Z,96934.75
2022-08-29T01:47:39.963Z,96937.59
2022-08-29T01:50:12.745Z,96932.31
2022-08-29T01:52:41.943Z,96932.31
2022-08-29T01:55:09.804Z,96932.72
2022-08-29T01:57:38.169Z,96936.84
2022-08-29T02:00:10.446Z,96936.25
2022-08-29T02:02:40.328Z,96936.44
2022-08-29T02:05:09.548Z,96940.31
2022-08-29T02:07:37.132Z,96934.44
2022-08-29T02:10:06.205Z,96940.72
2022-08-29T02:12:34.434Z,96939.13
2022-08-29T02:15:02.334Z,96937.72
2022-08-29T02:17:31.277Z,96942.59
2022-08-29T02:19:59.228Z,96936.31
2022-08-29T02:22:26.812Z,96935.28
2022-08-29T02:24:54.411Z,96926.34
2022-08-29T02:27:22.040Z,96932.66
2022-08-29T02:29:49.653Z,96935.69
2022-08-29T02:32:17.432Z,96944.00
2022-08-29T02:34:47.631Z,96940.19
2022-08-29T02:37:16.892Z,96944.84
2022-08-29T02:39:44.610Z,96941.63
2022-08-29T02:42:12.153Z,96943.91
2022-08-29T02:44:39.789Z,96946.72
2022-08-29T02:47:09.092Z,96942.69
2022-08-29T02:49:36.810Z,96945.53
2022-08-29T02:52:08.482Z,96944.94
2022-08-29T02:54:36.519Z,96941.69
2022-08-29T02:57:04.323Z,96940.31
2022-08-29T02:59:31.898Z,96946.81
2022-08-29T03:01:59.563Z,96945.19
2022-08-29T03:04:27.167Z,96944.59
2022-08-29T03:06:55.801Z,96935.88
2022-08-29T03:09:24.680Z,96932.88
2022-08-29T03:11:56.076Z,96927.81
2022-08-29T03:14:24.030Z,96937.53
2022-08-29T03:16:51.582Z,96939.53
2022-08-29T03:19:19.346Z,96936.66
2022-08-29T03:21:47.696Z,96937.44
2022-08-29T03:24:15.685Z,96945.72
2022-08-29T03:26:45.014Z,96941.50
2022-08-29T03:29:22.254Z,96937.88
2022-08-29T03:31:49.836Z,96937.06
2022-08-29T03:34:17.379Z,96937.47
2022-08-29T03:36:44.929Z,96942.72
2022-08-29T03:39:12.459Z,96934.63
2022-08-29T03:41:40.563Z,96933.47
2022-08-29T03:44:09.869Z,96935.09
2022-08-29T03:46:39.214Z,96941.59
2022-08-29T03:49:08.015Z,96943.84
2022-08-29T03:51:36.463Z,96933.94
2022-08-29T03:54:04.307Z,96933.34
2022-08-29T03:56:32.150Z,96937.41
2022-08-29T03:59:00.217Z,96934.78
2022-08-29T04:01:29.945Z,96939.03
2022-08-29T04:03:58.593Z,96940.63
2022-08-29T04:06:28.257Z,96937.00
2022-08-29T04:08:56.640Z,96942.88
2022-08-29T04:11:25.762Z,96941.66
2022-08-29T04:13:54.217Z,96949.38
2022-08-29T04:16:24.645Z,96955.66
2022-08-29T04:18:56.783Z,96954.63
2022-08-29T04:21:25.818Z,96953.44
2022-08-29T04:23:55.088Z,96951.59
2022-08-29T04:26:38.483Z,96958.47
2022-08-29T04:29:06.700Z,96960.69
2022-08-29T04:31:35.297Z,96961.69
2022-08-29T04:34:04.404Z,96958.69
2022-08-29T04:36:32.050Z,96959.28
2022-08-29T04:38:59.611Z,96966.00
2022-08-29T04:41:27.190Z,96968.03
2022-08-29T04:43:54.735Z,96966.41
2022-08-29T04:46:24.527Z,96967.63
2022-08-29T04:48:53.047Z,96970.25
2022-08-29T04:51:22.769Z,96960.53
2022-08-29T04:53:52.357Z,96964.81
2022-08-29T04:56:21.231Z,96962.19
2022-08-29T04:58:50.491Z,96971.28
2022-08-29T05:01:20.982Z,96974.31
2022-08-29T05:03:49.526Z,96974.53
2022-08-29T05:06:22.457Z,96976.59
2022-08-29T05:08:59.353Z,96971.72
2022-08-29T05:11:30.308Z,96978.19
2022-08-29T05:13:58.992Z,96972.91
2022-08-29T05:16:30.199Z,96972.91
2022-08-29T05:18:59.933Z,96968.69
2022-08-29T05:21:34.917Z,96967.84
2022-08-29T05:24:07.804Z,96966.84
2022-08-29T05:26:37.983Z,96960.38
2022-08-29T05:29:08.906Z,96956.31
2022-08-29T05:31:38.098Z,96961.94
2022-08-29T05:34:27.878Z,96955.25
2022-08-29T05:36:54.886Z,96955.66
2022-08-29T05:39:24.544Z,96972.22
2022-08-29T05:41:56.238Z,96968.75
2022-08-29T05:44:24.638Z,96970.97
2022-08-29T05:46:52.786Z,96975.56
2022-08-29T05:49:21.228Z,96971.47
2022-08-29T05:51:49.618Z,96976.25
2022-08-29T05:54:18.046Z,96978.69
2022-08-29T05:56:47.720Z,96980.69
2022-08-29T05:59:17.656Z,96984.50
2022-08-29T06:01:47.054Z,96987.75
2022-08-29T06:04:15.401Z,96991.38
2022-08-29T06:06:43.641Z,96985.34
2022-08-29T06:09:13.951Z,96995.69
2022-08-29T06:11:42.475Z,96993.06
2022-08-29T06:14:12.285Z,96998.09
2022-08-29T06:16:40.981Z,96998.53
2022-08-29T06:19:10.094Z,96999.53
2022-08-29T06:21:38.565Z,97005.16
2022-08-29T06:24:07.844Z,97003.50
2022-08-29T06:26:37.129Z,97006.09
2022-08-29T06:29:07.612Z,97009.34
2022-08-29T06:31:37.862Z,97010.53
2022-08-29T06:34:08.152Z,97017.81
2022-08-29T06:36:37.333Z,97015.72
2022-08-29T06:39:08.416Z,97012.97
2022-08-29T06:41:38.259Z,97015.72
2022-08-29T06:44:06.811Z,97016.25
2022-08-29T06:46:38.764Z,97018.63
2022-08-29T06:49:09.406Z,97017.97
2022-08-29T06:51:39.176Z,97016.06
2022-08-29T06:54:10.322Z,97016.03
2022-08-29T06:56:42.378Z,97020.84
2022-08-29T06:59:11.671Z,97014.44
2022-08-29T07:01:42.986Z,97015.22
2022-08-29T07:04:14.673Z,97018.13
2022-08-29T07:06:45.375Z,97015.19
2022-08-29T07:09:14.889Z,97011.81
2022-08-29T07:11:44.351Z,97013.28
2022-08-29T07:14:14.316Z,97010.91
2022-08-29T07:16:44.857Z,97011.78
2022-08-29T07:19:13.618Z,97012.44
2022-08-29T07:21:43.169Z,97010.63
2022-08-29T07:24:12.521Z,97018.59
2022-08-29T07:26:44.267Z,97022.56
2022-08-29T07:29:15.837Z,97030.28
2022-08-29T07:31:46.702Z,97028.22
2022-08-29T07:34:15.827Z,97027.00
2022-08-29T07:36:44.993Z,97031.84
2022-08-29T07:39:17.662Z,97020.81
2022-08-29T07:41:47.419Z,97023.56
2022-08-29T07:44:21.065Z,97025.47
2022-08-29T07:46:56.127Z,97018.41
2022-08-29T07:49:40.309Z,97015.41
2022-08-29T07:52:11.103Z,97021.44
2022-08-29T07:54:55.998Z,97023.97
2022-08-29T07:57:28.210Z,97034.09
2022-08-29T07:59:59.843Z,97033.28
2022-08-29T08:02:33.080Z,97031.16
2022-08-29T08:05:05.964Z,97023.97
2022-08-29T08:07:40.118Z,97020.75
2022-08-29T08:10:15.000Z,97024.38
2022-08-29T08:12:47.940Z,97027.13
2022-08-29T08:15:24.368Z,97020.44
2022-08-29T08:18:15.016Z,97027.28
2022-08-29T09:10:15.950Z,97025.63
2022-08-29T09:12:58.490Z,97032.44
2022-08-29T09:15:34.195Z,97035.53
2022-08-29T09:18:05.563Z,97036.00
2022-08-29T09:20:35.518Z,97038.91
2022-08-29T09:23:12.142Z,97041.06
2022-08-29T09:25:41.153Z,97031.06
2022-08-29T09:28:10.123Z,97034.03
2022-08-29T09:30:41.355Z,97033.03
2022-08-29T09:33:12.260Z,97031.47
2022-08-29T09:35:43.474Z,97027.22
2022-08-29T09:38:21.283Z,97030.69
2022-08-29T09:40:57.191Z,97036.94
2022-08-29T09:43:28.454Z,97035.41
2022-08-29T09:46:14.706Z,97035.00
2022-08-29T09:48:44.601Z,97044.44
2022-08-29T09:51:16.625Z,97049.38
2022-08-29T09:53:44.393Z,97052.09
2022-08-29T09:56:21.965Z,97047.13
2022-08-29T09:59:01.378Z,97045.25
2022-08-29T10:01:30.652Z,97043.16
2022-08-29T10:04:01.009Z,97041.06
2022-08-29T10:06:32.211Z,97036.53
2022-08-29T10:09:03.850Z,97038.16
2022-08-29T10:11:39.838Z,97046.72
2022-08-29T10:14:12.624Z,97042.41
2022-08-29T10:16:46.900Z,97035.91
2022-08-29T10:19:19.201Z,97045.72
2022-08-29T10:21:58.053Z,97048.03
2022-08-29T10:24:42.898Z,97045.59
2022-08-29T10:27:23.776Z,97052.78
2022-08-29T10:30:03.222Z,97046.84
2022-08-29T10:32:44.468Z,97048.38
2022-08-29T10:35:16.777Z,97042.69
2022-08-29T10:37:53.482Z,97047.88
2022-08-29T10:40:27.697Z,97045.06
2022-08-29T10:43:13.225Z,97039.91
2022-08-29T10:45:54.467Z,97044.00
2022-08-29T10:48:30.835Z,97040.66
2022-08-29T10:51:11.497Z,97040.03
2022-08-29T10:53:42.339Z,97042.38
2022-08-29T10:56:18.698Z,97042.09
2022-08-29T10:58:59.323Z,97039.19
2022-08-29T11:01:31.858Z,97039.50
2022-08-29T11:04:17.239Z,97038.13
2022-08-29T11:06:50.604Z,97032.97
2022-08-29T11:09:22.066Z,97036.16
2022-08-29T11:12:03.424Z,97029.66
2022-08-29T11:14:40.032Z,97026.41
2022-08-29T11:17:11.374Z,97025.78
2022-08-29T11:19:50.335Z,97029.44
2022-08-29T11:22:21.249Z,97023.50
2022-08-29T11:24:57.709Z,97012.75
2022-08-29T11:27:34.944Z,97012.75
2022-08-29T11:30:08.822Z,97017.53
2022-08-29T11:32:46.233Z,97017.19
2022-08-29T11:35:22.167Z,97017.34
2022-08-29T11:38:37.512Z,97007.25
2022-08-29T11:41:29.479Z,97005.88
2022-08-29T11:44:08.615Z,97006.53
2022-08-29T11:46:42.230Z,97004.50
2022-08-29T11:49:25.185Z,97002.88
2022-08-29T11:51:56.274Z,96996.97
2022-08-29T11:54:51.420Z,96997.97
2022-08-29T11:58:03.845Z,96992.81
2022-08-29T12:00:45.594Z,96994.56
2022-08-29T12:03:53.788Z,96981.34
2022-08-29T12:06:53.525Z,96992.91
2022-08-29T12:09:45.476Z,97000.44
2022-08-29T12:12:35.694Z,96993.47
2022-08-29T12:15:23.547Z,96993.47
2022-08-29T12:18:02.134Z,96984.34
2022-08-29T12:20:41.166Z,96989.69
2022-08-29T12:23:20.182Z,96982.00
2022-08-29T12:26:04.125Z,96984.03
2022-08-29T12:28:45.397Z,96990.94
2022-08-29T12:31:21.859Z,96994.06
2022-08-29T12:34:11.282Z,96986.41
2022-08-29T12:36:53.073Z,96981.34
2022-08-29T12:39:33.703Z,96977.13
2022-08-29T12:42:20.482Z,96978.78
2022-08-29T12:44:49.767Z,96978.59
2022-08-29T12:47:27.389Z,96968.13
2022-08-29T12:49:58.339Z,96973.50
2022-08-29T12:52:28.370Z,96964.41
2022-08-29T12:54:58.776Z,96963.91
2022-08-29T12:57:31.591Z,96958.00
2022-08-29T13:00:00.318Z,96962.78
2022-08-29T13:02:31.415Z,96955.81
2022-08-29T13:05:00.090Z,96951.00
2022-08-29T13:07:30.162Z,96952.09
2022-08-29T13:10:01.404Z,96948.63
2022-08-29T13:12:31.115Z,96944.84
2022-08-29T13:15:02.177Z,96942.97
2022-08-29T13:17:34.838Z,96946.09
2022-08-29T13:20:41.053Z,96939.88
2022-08-29T13:23:19.199Z,96930.22
2022-08-29T13:25:52.545Z,96928.69
2022-08-29T13:28:30.207Z,96924.19
2022-08-29T13:31:24.919Z,96921.59
2022-08-29T13:34:17.796Z,96918.97
2022-08-29T13:37:07.722Z,96914.16
2022-08-29T13:39:44.613Z,96909.94
2022-08-29T13:42:23.665Z,96915.66
2022-08-29T13:45:10.409Z,96913.22
2022-08-29T13:47:48.570Z,96917.97
2022-08-29T13:50:16.147Z,96907.34
2022-08-29T13:52:43.814Z,96907.91
2022-08-29T13:55:11.385Z,96899.56
2022-08-29T13:57:42.318Z,96908.97
2022-08-29T14:00:13.191Z,96900.94
2022-08-29T14:02:45.215Z,96900.94
2022-08-29T14:05:14.347Z,96892.38
2022-08-29T14:07:44.175Z,96890.56
2022-08-29T14:10:13.874Z,96895.66
2022-08-29T14:12:42.927Z,96894.66
2022-08-29T14:15:12.307Z,96892.00
2022-08-29T14:17:41.495Z,96890.97
2022-08-29T14:20:10.550Z,96891.63
2022-08-29T14:22:38.511Z,96884.72
2022-08-29T14:25:07.905Z,96893.03
2022-08-29T14:27:35.632Z,96890.63
2022-08-29T14:30:06.074Z,96891.22
2022-08-29T14:32:33.696Z,96886.91
2022-08-29T14:35:01.796Z,96874.63
2022-08-29T14:37:29.371Z,96880.56
2022-08-29T14:39:57.154Z,96883.78
2022-08-29T14:42:25.979Z,96885.94
2022-08-29T14:44:53.555Z,96882.22
2022-08-29T14:47:22.502Z,96881.72
2022-08-29T14:49:50.131Z,96885.50
2022-08-29T14:52:17.718Z,96888.44
2022-08-29T14:54:45.279Z,96888.75
2022-08-29T14:57:12.921Z,96887.72
2022-08-29T14:59:40.728Z,96884.50
2022-08-29T15:02:10.023Z,96886.41
2022-08-29T15:04:39.140Z,96883.16
2022-08-29T15:07:07.576Z,96881.31
2022-08-29T15:09:45.430Z,96885.66
2022-08-29T15:12:39.635Z,96879.81
2022-08-29T15:18:02.363Z,96879.34
2022-08-29T15:23:58.361Z,96871.63
2022-08-29T15:26:37.238Z,96871.69
2022-08-29T15:32:16.962Z,96870.13
2022-08-29T15:34:51.473Z,96859.75
2022-08-29T15:37:29.795Z,96857.69
2022-08-29T15:42:58.479Z,96859.81
2022-08-29T15:45:27.423Z,96852.38
2022-08-29T15:48:00.202Z,96848.66
2022-08-29T15:50:29.438Z,96848.13
2022-08-29T15:53:00.225Z,96848.69
2022-08-29T15:55:28.096Z,96843.09
2022-08-29T15:57:55.698Z,96848.19
2022-08-29T16:00:29.558Z,96843.41
2022-08-29T16:02:59.627Z,96837.78
2022-08-29T16:05:27.524Z,96837.56
2022-08-29T16:07:55.104Z,96845.84
2022-08-29T16:10:24.176Z,96845.59
2022-08-29T16:12:51.733Z,96849.91
2022-08-29T16:15:19.358Z,96841.91
2022-08-29T16:17:46.978Z,96843.25
2022-08-29T16:20:15.155Z,96845.16
2022-08-29T16:22:44.155Z,96846.50
2022-08-29T16:25:13.644Z,96838.25
2022-08-29T16:27:43.070Z,96837.19
2022-08-29T16:30:11.850Z,96844.13
2022-08-29T16:32:39.790Z,96836.16
2022-08-29T16:35:08.594Z,96843.09
2022-08-29T16:37:37.449Z,96834.03
2022-08-29T16:40:07.196Z,96835.38
2022-08-29T16:42:35.342Z,96837.78
2022-08-29T16:45:06.165Z,96831.41
2022-08-29T16:47:33.777Z,96827.13
2022-08-29T16:50:01.496Z,96827.94
2022-08-29T16:52:31.312Z,96824.22
2022-08-29T16:54:59.075Z,96828.25
2022-08-29T16:57:26.653Z,96830.66
2022-08-29T16:59:54.242Z,96834.66
2022-08-29T17:02:23.434Z,96829.84
2022-08-29T17:04:51.315Z,96819.72
2022-08-29T17:07:19.844Z,96824.53
2022-08-29T17:09:46.347Z,96820.81
2022-08-29T17:12:12.855Z,96827.22
2022-08-29T17:14:39.421Z,96824.03
2022-08-29T17:17:07.089Z,96819.22
2022-08-29T17:19:36.380Z,96816.00
2022-08-29T17:22:04.040Z,96829.66
2022-08-29T17:24:31.684Z,96827.22
2022-08-29T17:26:59.282Z,96818.66
2022-08-29T17:29:26.884Z,96821.88
2022-08-29T17:31:54.458Z,96824.03
2022-08-29T17:34:23.855Z,96826.41
2022-08-29T17:36:52.862Z,96827.75
2022-08-29T17:39:20.945Z,96829.09
2022-08-29T17:41:50.523Z,96835.25
2022-08-29T17:44:18.489Z,96835.50
2022-08-29T17:46:46.299Z,96839.78
2022-08-29T17:49:13.890Z,96839.50
2022-08-29T17:51:43.081Z,96838.44
2022-08-29T17:54:14.662Z,96845.13
2022-08-29T17:56:44.978Z,96843.25
2022-08-29T17:59:12.778Z,96848.34
2022-08-29T18:01:40.762Z,96847.25
2022-08-29T18:04:08.676Z,96847.53
2022-08-29T18:06:36.302Z,96838.19
2022-08-29T18:09:04.186Z,96834.19
2022-08-29T18:11:33.572Z,96831.22
2022-08-29T18:14:01.150Z,96842.63
2022-08-29T18:16:28.838Z,96851.97
2022-08-29T18:18:56.594Z,96850.59
2022-08-29T18:21:24.197Z,96858.06
2022-08-29T18:23:51.859Z,96851.63
2022-08-29T18:26:19.525Z,96864.38
2022-08-29T18:28:48.702Z,96861.94
2022-08-29T18:31:18.245Z,96863.25
2022-08-29T18:34:00.209Z,96866.38
2022-08-29T18:36:28.644Z,96866.38
2022-08-29T18:38:56.375Z,96876.97
2022-08-29T18:41:23.954Z,96874.53
2022-08-29T18:43:53.388Z,96881.72
2022-08-29T18:46:21.120Z,96882.75
2022-08-29T18:48:49.071Z,96892.81
2022-08-29T18:51:16.997Z,96895.19
2022-08-29T18:53:45.139Z,96893.78
2022-08-29T18:56:13.247Z,96892.41
2022-08-29T18:58:44.216Z,96905.94
2022-08-29T19:01:16.971Z,96908.81
2022-08-29T19:03:56.335Z,96907.13
2022-08-29T19:06:25.891Z,96909.75
2022-08-29T19:08:54.537Z,96916.88
2022-08-29T19:11:22.145Z,96914.19
2022-08-29T19:13:52.394Z,96915.19
2022-08-29T19:16:22.934Z,96914.59
2022-08-29T19:18:51.107Z,96920.91
2022-08-29T19:21:18.422Z,96927.22
2022-08-29T19:23:52.057Z,96925.31
2022-08-29T19:26:23.536Z,96929.31
2022-08-29T19:28:54.119Z,96927.72
2022-08-29T19:31:27.057Z,96930.31
2022-08-29T19:33:54.784Z,96920.97
2022-08-29T19:36:23.441Z,96919.88
2022-08-29T19:38:51.241Z,96921.69
2022-08-29T19:41:19.953Z,96928.22
2022-08-29T19:43:47.799Z,96925.72
2022-08-29T19:46:18.252Z,96925.13
2022-08-29T19:51:32.808Z,96919.91
2022-08-29T19:54:03.172Z,96921.50
2022-08-29T19:56:33.270Z,96917.94
2022-08-29T19:59:01.212Z,96926.41
2022-08-29T20:01:29.193Z,96935.38
2022-08-29T20:03:58.201Z,96937.13
2022-08-29T20:06:25.867Z,96934.25
2022-08-29T20:08:54.003Z,96938.75
2022-08-29T20:11:24.982Z,96939.41
2022-08-29T20:13:56.607Z,96941.44
2022-08-29T20:16:27.617Z,96942.63
2022-08-29T20:18:55.429Z,96933.25
2022-08-29T20:21:25.041Z,96945.16
2022-08-29T20:23:57.725Z,96941.66
2022-08-29T20:26:27.872Z,96941.66
2022-08-29T20:28:55.953Z,96944.78
2022-08-29T20:31:23.602Z,96948.00
2022-08-29T20:33:51.599Z,96955.66
2022-08-29T20:36:39.589Z,96966.53
2022-08-29T20:39:10.707Z,96952.91
2022-08-29T20:41:38.404Z,96966.91
2022-08-29T20:44:09.800Z,96967.88
2022-08-29T20:46:40.422Z,96971.59
2022-08-29T20:49:08.252Z,96964.88
2022-08-29T20:51:36.591Z,96959.03
2022-08-29T20:54:04.848Z,96958.13
2022-08-29T20:56:33.834Z,96968.69
2022-08-29T20:59:01.578Z,96959.31
2022-08-29T21:01:29.168Z,96958.53
2022-08-29T21:04:14.398Z,96960.53
2022-08-29T21:06:48.861Z,96960.91
2022-08-29T21:09:16.531Z,96957.03
2022-08-29T21:11:45.575Z,96956.41
2022-08-29T21:14:13.186Z,96955.25
2022-08-29T21:16:40.965Z,96955.16
2022-08-29T21:19:09.904Z,96959.31
2022-08-29T21:21:39.182Z,96958.72
2022-08-29T21:24:07.708Z,96958.16
2022-08-29T21:26:35.830Z,96954.94
2022-08-29T21:29:05.997Z,96954.38
2022-08-29T21:31:34.401Z,96951.94
2022-08-29T21:34:06.316Z,96958.53
2022-08-29T21:36:35.928Z,96956.91
2022-08-29T21:39:05.387Z,96947.94
2022-08-29T21:41:34.185Z,96953.00
2022-08-29T21:44:01.799Z,96952.19
2022-08-29T21:46:32.809Z,96958.16
2022-08-29T21:49:02.615Z,96958.25
2022-08-29T21:51:32.241Z,96959.91
2022-08-29T21:54:00.335Z,96961.13
2022-08-29T21:56:31.208Z,96964.41
2022-08-29T21:59:00.106Z,96953.38
2022-08-29T22:01:33.936Z,96958.81
2022-08-29T22:04:04.029Z,96954.22
2022-08-29T22:06:35.202Z,96958.13
2022-08-29T22:09:03.792Z,96955.72
2022-08-29T22:11:37.634Z,96954.34
2022-08-29T22:14:07.209Z,96963.19
2022-08-29T22:16:37.359Z,96971.00
2022-08-29T22:19:09.038Z,96970.53
2022-08-29T22:21:39.599Z,96966.38
2022-08-29T22:24:10.395Z,96972.50
2022-08-29T22:26:39.940Z,96965.56
2022-08-29T22:29:11.952Z,96975.56
2022-08-29T22:31:42.922Z,96967.41
2022-08-29T22:34:12.169Z,96963.81
2022-08-29T22:36:40.979Z,96968.47
2022-08-29T22:39:09.778Z,96962.03
2022-08-29T22:41:38.432Z,96967.69
2022-08-29T22:44:52.628Z,96964.38
2022-08-29T22:46:59.166Z,96960.34
2022-08-29T22:49:33.471Z,96963.66
2022-08-29T22:52:02.142Z,96957.25
2022-08-29T22:54:36.072Z,96949.44
2022-08-29T22:57:05.391Z,96952.75
2022-08-29T22:59:35.066Z,96951.63
2022-08-29T23:02:05.764Z,96956.38
2022-08-29T23:04:34.604Z,96948.28
2022-08-29T23:07:03.213Z,96940.25
2022-08-29T23:09:33.562Z,96943.69
2022-08-29T23:12:04.933Z,96944.75
2022-08-29T23:14:33.281Z,96940.72
2022-08-29T23:17:01.694Z,96940.16
2022-08-29T23:19:32.100Z,96939.91
2022-08-29T23:22:02.231Z,96941.84
2022-08-29T23:24:30.692Z,96949.00
2022-08-29T23:26:59.536Z,96953.13
2022-08-29T23:29:29.846Z,96952.56
2022-08-29T23:31:58.373Z,96953.13
2022-08-29T23:34:26.898Z,96950.13
2022-08-29T23:36:56.936Z,96950.16
2022-08-29T23:39:25.240Z,96961.63
2022-08-29T23:41:53.735Z,96960.47
2022-08-29T23:44:22.163Z,96950.94
2022-08-29T23:46:50.717Z,96959.44
2022-08-29T23:49:19.215Z,96954.72
2022-08-29T23:51:47.604Z,96952.66
2022-08-29T23:54:18.432Z,96948.28
2022-08-29T23:56:46.894Z,96947.16
2022-08-29T23:59:35.406Z,96952.56
